Mountain Home Air Force Base
KMUO : now visible

Airfield :











YOU CAN JOIN US ON...

 
LOGIN :

Register | Disclaimer

   EN    FR    IT 

 









Legend :    VFR   Marginal VFR   IFR   Intensive IFR   Very Intensive IFR
Visi :
Ceiling :
>= 8 km
>= 3000ft
5 to 8 km
1000 to 3000 ft
1500m to 5 km
500 to 1000 ft
800 to 1500m
200 to 500 ft
< 800m
< 200 ft
Symbols :   Thunderstorms  Fog  Heavy snow  Heavy precipitations  Wind > 20 kt






- Airport Elevation : 2996 ft


KMUO - Mountain Home Air Force Base

CURRENT METAR :
  • 060258Z AUTO 14006KT 10SM FEW050 SCT090 11/08 A2960 RMK AO2 DZB07E09RAB09E32DZB32E33RAB33E34 SLP022 P0000 60000 T01070076 52017 $

EXPIRED METARs :
  • 060234Z AUTO 15008KT 10SM FEW060 11/06 A2960 RMK AO2 DZB07E09RAB09E32DZB32E33RAB33E34 SLP024 $
  • 060222Z AUTO 14011KT 10SM -RA SCT060 12/05 A2960 RMK AO2 DZB07E09RAB09 PRESRR SLP022 $
  • 060207Z AUTO 13012KT 10SM -DZ BKN065 12/03 A2958 RMK AO2 DZB07 SLP017 $
  • 060158Z AUTO 13016KT 10SM SCT065 BKN130 12/03 A2958 RMK AO2 SLP017 T01240025 $
  • 060058Z AUTO 10013G19KT 10SM FEW190 14/02 A2956 RMK AO2 SLP008 T01400016 $

Expired Forecast.



MET'MAP, your aeronautical weather chart ! - Copyright ORBIFLY December 2007 - Disclaimer

ORBIFLY MET'MAP TEAM :

Programming & Development : Alexandra Zaïnal
Concept & original design : Baudouin d'Aumeries
Assistance for programming : Marc-Olivier Méhu
Technical & hardware support : Manuel Goepfert

Contact : metmap@orbifly.com




SOURCES & CREDITS :

   NOAA       Earth
Advisory